createdAt,value
2023-02-22T00:00:09.239Z,0.00
2023-02-22T00:01:09.245Z,0.00
2023-02-22T00:02:09.345Z,0.00
2023-02-22T00:03:09.295Z,0.00
2023-02-22T00:04:09.255Z,0.00
2023-02-22T00:05:09.282Z,0.00
2023-02-22T00:06:09.275Z,0.00
2023-02-22T00:07:09.297Z,0.00
2023-02-22T00:08:09.282Z,0.00
2023-02-22T00:09:09.302Z,0.00
2023-02-22T00:10:09.301Z,0.00
2023-02-22T00:11:09.307Z,0.00
2023-02-22T00:12:09.311Z,0.00
2023-02-22T00:13:09.315Z,0.00
2023-02-22T00:14:09.322Z,0.00
2023-02-22T00:15:09.325Z,0.00
2023-02-22T00:16:09.343Z,0.00
2023-02-22T00:17:09.338Z,0.00
2023-02-22T00:18:09.341Z,0.00
2023-02-22T00:19:09.349Z,0.00
2023-02-22T00:20:09.354Z,0.00
2023-02-22T00:21:09.396Z,0.00
2023-02-22T00:22:09.357Z,0.00
2023-02-22T00:23:09.371Z,0.00
2023-02-22T00:24:09.369Z,0.00
2023-02-22T00:25:09.378Z,0.00
2023-02-22T00:26:09.388Z,0.00
2023-02-22T00:27:09.396Z,0.00
2023-02-22T00:28:09.394Z,0.00
2023-02-22T00:29:09.399Z,0.00
2023-02-22T00:30:09.517Z,0.00
2023-02-22T00:31:09.411Z,0.00
2023-02-22T00:32:09.566Z,0.00
2023-02-22T00:33:09.421Z,0.00
2023-02-22T00:34:09.432Z,0.00
2023-02-22T00:35:09.433Z,0.00
2023-02-22T00:36:09.445Z,0.00
2023-02-22T00:37:09.473Z,0.00
2023-02-22T00:38:09.458Z,0.00
2023-02-22T00:39:09.461Z,0.00
2023-02-22T00:40:09.460Z,0.00
2023-02-22T00:41:09.493Z,0.00
2023-02-22T00:42:09.476Z,0.00
2023-02-22T00:43:09.485Z,0.00
2023-02-22T00:44:09.489Z,0.00
2023-02-22T00:45:09.495Z,0.00
2023-02-22T00:46:09.552Z,0.00
2023-02-22T00:47:09.505Z,0.00
2023-02-22T00:48:09.512Z,0.00
2023-02-22T00:49:09.517Z,0.00
2023-02-22T00:50:09.514Z,0.00
2023-02-22T00:51:09.530Z,0.00
2023-02-22T00:52:09.525Z,0.00
2023-02-22T00:53:09.562Z,0.00
2023-02-22T00:54:09.545Z,0.00
2023-02-22T00:55:09.550Z,0.00
2023-02-22T00:56:09.549Z,0.00
2023-02-22T00:57:09.562Z,0.00
2023-02-22T00:58:09.577Z,0.00
2023-02-22T00:59:09.573Z,0.00
2023-02-22T01:00:09.571Z,0.00
2023-02-22T01:01:09.613Z,0.00
2023-02-22T01:02:09.648Z,0.00
2023-02-22T01:03:09.596Z,0.00
2023-02-22T01:04:09.595Z,0.00
2023-02-22T01:05:09.604Z,0.00
2023-02-22T01:06:09.610Z,0.00
2023-02-22T01:07:09.621Z,0.00
2023-02-22T01:08:09.627Z,0.00
2023-02-22T01:09:09.640Z,0.00
2023-02-22T01:10:09.625Z,0.00
2023-02-22T01:11:09.628Z,0.00
2023-02-22T01:12:09.644Z,0.00
2023-02-22T01:13:09.723Z,0.00
2023-02-22T01:14:09.701Z,0.00
2023-02-22T01:15:09.654Z,0.00
2023-02-22T01:16:09.656Z,0.00
2023-02-22T01:17:09.669Z,0.00
2023-02-22T01:18:09.673Z,0.00
2023-02-22T01:19:09.682Z,0.00
2023-02-22T01:20:09.680Z,0.00
2023-02-22T01:21:09.683Z,0.00
2023-02-22T01:22:09.690Z,0.00
2023-02-22T01:23:09.701Z,0.00
2023-02-22T01:24:09.707Z,0.00
2023-02-22T01:25:09.729Z,0.00
2023-02-22T01:26:09.713Z,0.00
2023-02-22T01:27:09.721Z,0.00
2023-02-22T01:28:09.723Z,0.00
2023-02-22T01:29:09.735Z,0.00
2023-02-22T01:30:09.760Z,0.00
2023-02-22T01:31:09.756Z,0.00
2023-02-22T01:32:09.787Z,0.00
2023-02-22T01:33:09.751Z,0.00
2023-02-22T01:34:09.753Z,0.00
2023-02-22T01:35:09.761Z,0.00
2023-02-22T01:36:09.769Z,0.00
2023-02-22T01:37:09.770Z,0.00
2023-02-22T01:38:09.773Z,0.00
2023-02-22T01:39:09.784Z,0.00
2023-02-22T01:40:09.792Z,0.00
2023-02-22T01:41:09.818Z,0.00
2023-02-22T01:42:09.796Z,0.00
2023-02-22T01:43:09.798Z,0.00
2023-02-22T01:44:09.809Z,0.00
2023-02-22T01:45:09.817Z,0.00
2023-02-22T01:46:09.846Z,0.00
2023-02-22T01:47:09.833Z,0.00
2023-02-22T01:48:09.833Z,0.00
2023-02-22T01:49:09.831Z,0.00
2023-02-22T01:50:09.842Z,0.00
2023-02-22T01:51:09.847Z,0.00
2023-02-22T01:52:09.856Z,0.00
2023-02-22T01:53:09.850Z,0.00
2023-02-22T01:54:09.875Z,0.00
2023-02-22T01:55:09.860Z,0.00
2023-02-22T01:56:09.871Z,0.00
2023-02-22T01:57:09.902Z,0.00
2023-02-22T01:58:09.880Z,0.00
2023-02-22T01:59:09.885Z,0.00
2023-02-22T02:00:09.917Z,0.00
2023-02-22T02:01:09.899Z,0.00
2023-02-22T02:02:09.911Z,0.00
2023-02-22T02:03:09.912Z,0.00
2023-02-22T02:04:10.029Z,0.00
2023-02-22T02:05:09.950Z,0.00
2023-02-22T02:06:09.922Z,0.00
2023-02-22T02:07:09.925Z,0.00
2023-02-22T02:08:09.943Z,0.00
2023-02-22T02:09:09.945Z,0.00
2023-02-22T02:10:09.943Z,0.00
2023-02-22T02:11:09.981Z,0.00
2023-02-22T02:12:09.955Z,0.00
2023-02-22T02:13:09.992Z,0.00
2023-02-22T02:14:09.990Z,0.00
2023-02-22T02:15:09.983Z,0.00
2023-02-22T02:16:09.985Z,0.00
2023-02-22T02:17:09.986Z,0.00
2023-02-22T02:18:09.988Z,0.00
2023-02-22T02:19:10.003Z,0.00
2023-02-22T02:20:10.002Z,0.00
2023-02-22T02:21:10.014Z,0.00
2023-02-22T02:22:10.017Z,0.00
2023-02-22T02:23:10.016Z,0.00
2023-02-22T02:24:10.022Z,0.00
2023-02-22T02:25:10.038Z,0.00
2023-02-22T02:26:10.041Z,0.00
2023-02-22T02:27:10.040Z,0.00
2023-02-22T02:28:10.048Z,0.00
2023-02-22T02:29:10.072Z,0.00
2023-02-22T02:30:10.126Z,0.00
2023-02-22T02:31:10.060Z,0.00
2023-02-22T02:32:10.161Z,0.00
2023-02-22T02:33:10.076Z,0.00
2023-02-22T02:34:10.088Z,0.00
2023-02-22T02:35:10.089Z,0.00
2023-02-22T02:36:10.100Z,0.00
2023-02-22T02:37:10.099Z,0.00
2023-02-22T02:38:10.109Z,0.00
2023-02-22T02:39:10.107Z,0.00
2023-02-22T02:40:10.208Z,0.00
2023-02-22T02:41:10.116Z,0.00
2023-02-22T02:42:10.131Z,0.00
2023-02-22T02:43:10.131Z,0.00
2023-02-22T02:44:10.138Z,0.00
2023-02-22T02:45:10.171Z,0.00
2023-02-22T02:46:10.153Z,0.00
2023-02-22T02:47:10.201Z,0.00
2023-02-22T02:48:10.170Z,0.00
2023-02-22T02:49:10.177Z,0.00
2023-02-22T02:50:10.173Z,0.00
2023-02-22T02:51:10.175Z,0.00
2023-02-22T02:52:10.183Z,0.00
2023-02-22T02:53:10.190Z,0.00
2023-02-22T02:54:10.189Z,0.00
2023-02-22T02:55:10.193Z,0.00
2023-02-22T02:56:10.213Z,0.00
2023-02-22T02:57:10.211Z,0.00
2023-02-22T02:58:10.216Z,0.00
2023-02-22T02:59:10.224Z,0.00
2023-02-22T03:00:10.234Z,0.00
2023-02-22T03:01:10.300Z,0.00
2023-02-22T03:02:10.238Z,0.00
2023-02-22T03:03:10.241Z,0.00
2023-02-22T03:04:10.264Z,0.00
2023-02-22T03:05:10.259Z,0.00
2023-02-22T03:06:10.260Z,0.00
2023-02-22T03:07:10.324Z,0.00
2023-02-22T03:08:10.274Z,0.00
2023-02-22T03:09:10.272Z,0.00
2023-02-22T03:10:10.276Z,0.00
2023-02-22T03:11:10.277Z,0.00
2023-02-22T03:12:10.284Z,0.00
2023-02-22T03:13:10.288Z,0.00
2023-02-22T03:14:10.296Z,0.00
2023-02-22T03:15:10.309Z,0.00
2023-02-22T03:16:10.335Z,0.00
2023-02-22T03:17:10.343Z,0.00
2023-02-22T03:18:10.333Z,0.00
2023-02-22T03:19:10.323Z,0.00
2023-02-22T03:20:10.339Z,0.00
2023-02-22T03:21:10.333Z,0.00
2023-02-22T03:22:10.338Z,0.00
2023-02-22T03:23:10.349Z,0.00
2023-02-22T03:24:10.355Z,0.00
2023-02-22T03:25:10.357Z,0.00
2023-02-22T03:26:10.361Z,0.00
2023-02-22T03:27:10.376Z,0.00
2023-02-22T03:28:10.374Z,0.00
2023-02-22T03:29:10.382Z,0.00
2023-02-22T03:30:10.423Z,0.00
2023-02-22T03:31:10.478Z,0.00
2023-02-22T03:32:10.431Z,0.00
2023-02-22T03:33:10.430Z,0.00
2023-02-22T03:34:10.413Z,0.00
2023-02-22T03:35:10.420Z,0.00
2023-02-22T03:36:10.425Z,0.00
2023-02-22T03:37:10.430Z,0.00
2023-02-22T03:38:10.439Z,0.00
2023-02-22T03:39:10.431Z,0.00
2023-02-22T03:40:10.440Z,0.00
2023-02-22T03:41:10.443Z,0.00
2023-02-22T03:42:10.460Z,0.00
2023-02-22T03:43:10.454Z,0.00
2023-02-22T03:44:10.466Z,0.00
2023-02-22T03:45:10.472Z,0.00
2023-02-22T03:46:10.569Z,0.00
2023-02-22T03:47:10.483Z,0.00
2023-02-22T03:48:10.491Z,0.00
2023-02-22T03:49:10.518Z,0.00
2023-02-22T03:50:10.494Z,0.00
2023-02-22T03:51:10.497Z,0.00
2023-02-22T03:52:10.504Z,0.00
2023-02-22T03:53:10.517Z,0.00
2023-02-22T03:54:10.517Z,0.00
2023-02-22T03:55:10.520Z,0.00
2023-02-22T03:56:10.546Z,0.00
2023-02-22T03:57:10.537Z,0.00
2023-02-22T03:58:10.536Z,0.00
2023-02-22T03:59:10.546Z,0.00
2023-02-22T04:00:10.542Z,0.00
2023-02-22T04:01:10.557Z,0.00
2023-02-22T04:02:10.562Z,0.00
2023-02-22T04:03:10.597Z,0.00
2023-02-22T04:04:10.570Z,0.00
2023-02-22T04:05:10.595Z,0.00
2023-02-22T04:06:10.573Z,0.00
2023-02-22T04:07:10.585Z,0.00
2023-02-22T04:08:10.589Z,0.00
2023-02-22T04:09:10.591Z,0.00
2023-02-22T04:10:10.602Z,0.00
2023-02-22T04:11:10.597Z,0.00
2023-02-22T04:12:10.616Z,0.00
2023-02-22T04:13:10.667Z,0.00
2023-02-22T04:14:10.623Z,0.00
2023-02-22T04:15:10.625Z,0.00
2023-02-22T04:16:10.734Z,0.00
2023-02-22T04:17:10.627Z,0.00
2023-02-22T04:18:10.631Z,0.00
2023-02-22T04:19:10.667Z,0.00
2023-02-22T04:20:10.640Z,0.00
2023-02-22T04:21:10.698Z,0.00
2023-02-22T04:22:10.654Z,0.00
2023-02-22T04:23:10.657Z,0.00
2023-02-22T04:24:10.668Z,0.00
2023-02-22T04:25:10.662Z,0.00
2023-02-22T04:26:10.666Z,0.00
2023-02-22T04:27:10.680Z,0.00
2023-02-22T04:28:10.683Z,0.00
2023-02-22T04:29:10.684Z,0.00
2023-02-22T04:30:10.722Z,0.00
2023-02-22T04:31:10.756Z,0.00
2023-02-22T04:32:10.714Z,0.00
2023-02-22T04:33:10.706Z,0.00
2023-02-22T04:34:10.715Z,0.00
2023-02-22T04:35:10.710Z,0.00
2023-02-22T04:36:10.740Z,0.00
2023-02-22T04:37:10.747Z,0.00
2023-02-22T04:38:10.723Z,0.00
2023-02-22T04:39:10.730Z,0.00
2023-02-22T04:40:10.738Z,0.00
2023-02-22T04:41:10.739Z,0.00
2023-02-22T04:42:10.751Z,0.00
2023-02-22T04:43:10.761Z,0.00
2023-02-22T04:44:10.758Z,0.00
2023-02-22T04:45:10.756Z,0.00
2023-02-22T04:46:10.802Z,0.00
2023-02-22T04:47:10.770Z,0.00
2023-02-22T04:48:10.783Z,0.00
2023-02-22T04:49:10.788Z,0.00
2023-02-22T04:50:10.781Z,0.00
2023-02-22T04:51:10.792Z,0.00
2023-02-22T04:52:10.792Z,0.00
2023-02-22T04:53:10.818Z,0.00
2023-02-22T04:54:10.836Z,0.00
2023-02-22T04:55:10.806Z,0.00
2023-02-22T04:56:10.820Z,0.00
2023-02-22T04:57:10.825Z,0.00
2023-02-22T04:58:10.820Z,0.00
2023-02-22T04:59:10.824Z,0.00
2023-02-22T05:00:10.849Z,0.00
2023-02-22T05:01:10.852Z,0.00
2023-02-22T05:02:10.847Z,0.00
2023-02-22T05:03:10.846Z,0.00
2023-02-22T05:04:10.856Z,0.00
2023-02-22T05:05:10.860Z,0.00
2023-02-22T05:06:10.865Z,0.00
2023-02-22T05:07:10.871Z,0.00
2023-02-22T05:08:10.867Z,0.00
2023-02-22T05:09:10.896Z,0.00
2023-02-22T05:10:10.884Z,0.00
2023-02-22T05:11:10.885Z,0.00
2023-02-22T05:12:10.885Z,0.00
2023-02-22T05:13:10.896Z,0.00
2023-02-22T05:14:10.905Z,0.00
2023-02-22T05:15:10.917Z,0.00
2023-02-22T05:16:11.001Z,0.00
2023-02-22T05:17:10.915Z,0.00
2023-02-22T05:18:10.919Z,0.00
2023-02-22T05:19:10.922Z,0.00
2023-02-22T05:20:10.928Z,0.00
2023-02-22T05:21:10.935Z,0.00
2023-02-22T05:22:10.935Z,0.00
2023-02-22T05:23:10.945Z,0.00
2023-02-22T05:24:10.941Z,0.00
2023-02-22T05:25:10.970Z,0.00
2023-02-22T05:26:11.760Z,0.00
2023-02-22T05:27:10.963Z,0.00
2023-02-22T05:28:10.968Z,0.00
2023-02-22T05:29:10.965Z,0.00
2023-02-22T05:30:10.989Z,0.00
2023-02-22T05:31:11.045Z,0.00
2023-02-22T05:32:11.064Z,0.00
2023-02-22T05:33:10.994Z,0.00
2023-02-22T05:34:10.996Z,0.00
2023-02-22T05:35:10.998Z,0.00
2023-02-22T05:36:11.005Z,0.00
2023-02-22T05:37:11.000Z,0.00
2023-02-22T05:38:11.014Z,0.00
2023-02-22T05:39:11.026Z,0.00
2023-02-22T05:40:11.023Z,0.00
2023-02-22T05:41:11.050Z,0.00
2023-02-22T05:42:11.026Z,0.00
2023-02-22T05:43:11.032Z,0.00
2023-02-22T05:44:11.036Z,0.00
2023-02-22T05:45:11.039Z,0.00
2023-02-22T05:46:11.132Z,4.00
2023-02-22T05:47:11.061Z,0.00
2023-02-22T05:48:11.064Z,0.00
2023-02-22T05:49:11.058Z,4.00
2023-02-22T05:50:11.077Z,4.00
2023-02-22T05:51:11.104Z,0.00
2023-02-22T05:52:11.073Z,4.00
2023-02-22T05:53:11.086Z,8.00
2023-02-22T05:54:11.085Z,4.00
2023-02-22T05:55:11.088Z,8.00
2023-02-22T05:56:11.092Z,8.00
2023-02-22T05:57:11.162Z,8.00
2023-02-22T05:58:11.099Z,12.00
2023-02-22T05:59:11.114Z,16.00
2023-02-22T06:00:11.112Z,16.00
2023-02-22T06:01:11.121Z,16.00
2023-02-22T06:02:11.194Z,20.00
2023-02-22T06:03:11.131Z,24.00
2023-02-22T06:04:11.135Z,28.00
2023-02-22T06:05:11.225Z,32.00
2023-02-22T06:06:11.138Z,36.00
2023-02-22T06:07:11.197Z,44.00
2023-02-22T06:08:11.153Z,52.00
2023-02-22T06:09:11.152Z,56.00
2023-02-22T06:10:11.167Z,68.00
2023-02-22T06:11:11.159Z,72.00
2023-02-22T06:12:11.173Z,80.00
2023-02-22T06:13:11.204Z,84.00
2023-02-22T06:14:11.183Z,84.00
2023-02-22T06:15:11.188Z,92.00
2023-02-22T06:16:11.239Z,100.00
2023-02-22T06:17:11.194Z,100.00
2023-02-22T06:18:11.213Z,108.00
2023-02-22T06:19:11.200Z,108.00
2023-02-22T06:20:11.200Z,116.00
2023-02-22T06:21:11.217Z,124.00
2023-02-22T06:22:11.215Z,132.00
2023-02-22T06:23:11.225Z,136.00
2023-02-22T06:24:11.222Z,148.00
2023-02-22T06:25:11.226Z,156.00
2023-02-22T06:26:11.234Z,164.00
2023-02-22T06:27:11.241Z,176.00
2023-02-22T06:28:11.242Z,196.00
2023-02-22T06:29:11.269Z,212.00
2023-02-22T06:30:13.188Z,232.00
2023-02-22T06:31:11.309Z,248.00
2023-02-22T06:32:11.319Z,260.00
2023-02-22T06:33:11.274Z,276.00
2023-02-22T06:34:11.270Z,292.00
2023-02-22T06:35:11.273Z,312.00
2023-02-22T06:36:11.280Z,336.00
2023-02-22T06:37:11.292Z,348.00
2023-02-22T06:38:11.294Z,372.00
2023-02-22T06:39:11.303Z,396.00
2023-02-22T06:40:11.306Z,444.00
2023-02-22T06:41:11.323Z,512.00
2023-02-22T06:42:11.411Z,564.00
2023-02-22T06:43:11.312Z,600.00
2023-02-22T06:44:11.324Z,620.00
2023-02-22T06:45:11.362Z,640.00
2023-02-22T06:46:11.342Z,676.00
2023-02-22T06:47:11.331Z,720.00
2023-02-22T06:48:11.340Z,744.00
2023-02-22T06:49:11.348Z,756.00
2023-02-22T06:50:11.355Z,776.00
2023-02-22T06:51:11.356Z,804.00
2023-02-22T06:52:11.363Z,844.00
2023-02-22T06:53:11.371Z,892.00
2023-02-22T06:54:11.369Z,952.00
2023-02-22T06:55:11.367Z,1020.00
2023-02-22T06:56:11.375Z,1068.00
2023-02-22T06:57:11.377Z,1084.00
2023-02-22T06:58:11.394Z,1076.00
2023-02-22T06:59:11.392Z,1096.00
2023-02-22T07:00:11.400Z,1176.00
2023-02-22T07:01:11.455Z,1296.00
2023-02-22T07:02:11.409Z,1412.00
2023-02-22T07:03:11.455Z,1452.00
2023-02-22T07:04:11.412Z,1432.00
2023-02-22T07:05:11.426Z,1460.00
2023-02-22T07:06:11.429Z,1516.00
2023-02-22T07:07:11.438Z,1532.00
2023-02-22T07:08:11.439Z,1508.00
2023-02-22T07:09:11.443Z,1492.00
2023-02-22T07:10:11.443Z,1524.00
2023-02-22T07:11:11.450Z,1572.00
2023-02-22T07:12:11.452Z,1608.00
2023-02-22T07:13:11.467Z,1684.00
2023-02-22T07:14:11.465Z,1764.00
2023-02-22T07:15:11.469Z,1728.00
2023-02-22T07:16:11.510Z,1680.00
2023-02-22T07:17:11.519Z,1720.00
2023-02-22T07:18:11.491Z,1740.00
2023-02-22T07:19:11.486Z,1716.00
2023-02-22T07:20:11.508Z,1656.00
2023-02-22T07:21:11.505Z,1612.00
2023-02-22T07:22:11.511Z,1556.00
2023-02-22T07:23:11.516Z,1560.00
2023-02-22T07:24:11.517Z,1560.00
2023-02-22T07:25:11.534Z,1544.00
2023-02-22T07:26:11.531Z,1556.00
2023-02-22T07:27:11.532Z,1576.00
2023-02-22T07:28:11.540Z,1656.00
2023-02-22T07:29:11.540Z,1700.00
2023-02-22T07:30:11.580Z,1688.00
2023-02-22T07:31:11.560Z,1720.00
2023-02-22T07:32:11.682Z,1748.00
2023-02-22T07:33:11.671Z,1740.00
2023-02-22T07:34:11.570Z,1760.00
2023-02-22T07:35:11.571Z,1816.00
2023-02-22T07:36:11.578Z,1848.00
2023-02-22T07:37:11.578Z,1864.00
2023-02-22T07:38:11.593Z,1868.00
2023-02-22T07:39:11.585Z,1896.00
2023-02-22T07:40:11.590Z,1940.00
2023-02-22T07:41:11.603Z,1992.00
2023-02-22T07:42:11.606Z,2028.00
2023-02-22T07:43:11.604Z,2048.00
2023-02-22T07:44:11.607Z,2104.00
2023-02-22T07:45:11.621Z,2192.00
2023-02-22T07:46:11.620Z,2288.00
2023-02-22T07:47:11.629Z,2332.00
2023-02-22T07:48:11.628Z,2404.00
2023-02-22T07:49:11.659Z,2472.00
2023-02-22T07:50:11.645Z,2548.00
2023-02-22T07:51:11.644Z,2532.00
2023-02-22T07:52:11.654Z,2452.00
2023-02-22T07:53:11.664Z,2448.00
2023-02-22T07:54:11.660Z,2476.00
2023-02-22T07:55:11.667Z,2512.00
2023-02-22T07:56:11.666Z,2516.00
2023-02-22T07:57:11.675Z,2524.00
2023-02-22T07:58:11.686Z,2432.00
2023-02-22T07:59:11.690Z,2420.00
2023-02-22T08:00:11.693Z,2560.00
2023-02-22T08:01:11.717Z,2716.00
2023-02-22T08:02:11.711Z,2696.00
2023-02-22T08:03:11.727Z,2708.00
2023-02-22T08:04:11.721Z,2788.00
2023-02-22T08:05:11.750Z,2820.00
2023-02-22T08:06:11.715Z,2804.00
2023-02-22T08:07:11.721Z,2852.00
2023-02-22T08:08:11.724Z,2996.00
2023-02-22T08:09:11.734Z,3164.00
2023-02-22T08:10:11.736Z,3380.00
2023-02-22T08:11:11.748Z,3488.00
2023-02-22T08:12:11.750Z,3632.00
2023-02-22T08:13:11.759Z,3740.00
2023-02-22T08:14:11.759Z,3844.00
2023-02-22T08:15:11.766Z,3888.00
2023-02-22T08:16:11.773Z,3884.00
2023-02-22T08:17:11.790Z,3880.00
2023-02-22T08:18:11.781Z,3884.00
2023-02-22T08:19:11.785Z,3832.00
2023-02-22T08:20:11.792Z,3656.00
2023-02-22T08:21:11.810Z,3480.00
2023-02-22T08:22:11.793Z,3420.00
2023-02-22T08:23:11.813Z,3432.00
2023-02-22T08:24:11.811Z,3468.00
2023-02-22T08:25:11.811Z,3492.00
2023-02-22T08:26:11.821Z,3568.00
2023-02-22T08:27:11.816Z,3612.00
2023-02-22T08:28:11.837Z,3640.00
2023-02-22T08:29:11.828Z,3748.00
2023-02-22T08:30:11.870Z,3888.00
2023-02-22T08:31:11.837Z,4072.00
2023-02-22T08:32:12.077Z,4368.00
2023-02-22T08:33:11.938Z,4592.00
2023-02-22T08:34:11.854Z,4944.00
2023-02-22T08:35:11.859Z,5364.00
2023-02-22T08:36:11.864Z,5752.00
2023-02-22T08:37:11.892Z,5884.00
2023-02-22T08:38:11.875Z,6140.00
2023-02-22T08:39:11.883Z,6688.00
2023-02-22T08:40:14.650Z,7060.00
2023-02-22T08:41:11.890Z,7068.00
2023-02-22T08:42:11.900Z,7024.00
2023-02-22T08:43:11.905Z,6792.00
2023-02-22T08:44:11.904Z,6184.00
2023-02-22T08:45:11.912Z,6168.00
2023-02-22T08:46:11.998Z,6404.00
2023-02-22T08:47:11.923Z,6588.00
2023-02-22T08:48:11.936Z,6692.00
2023-02-22T08:49:11.929Z,7104.00
2023-02-22T08:50:11.956Z,7384.00
2023-02-22T08:51:11.944Z,7256.00
2023-02-22T08:52:11.939Z,7152.00
2023-02-22T08:53:11.967Z,7048.00
2023-02-22T08:54:11.950Z,6868.00
2023-02-22T08:55:11.962Z,6924.00
2023-02-22T08:56:11.970Z,7096.00
2023-02-22T08:57:11.984Z,7440.00
2023-02-22T08:58:12.013Z,7512.00
2023-02-22T08:59:11.981Z,7228.00
2023-02-22T09:00:11.987Z,7032.00
2023-02-22T09:01:12.920Z,6956.00
2023-02-22T09:02:12.057Z,7024.00
2023-02-22T09:03:12.005Z,7008.00
2023-02-22T09:04:12.004Z,7044.00
2023-02-22T09:05:12.003Z,7108.00
2023-02-22T09:06:12.026Z,7064.00
2023-02-22T09:07:12.018Z,7288.00
2023-02-22T09:08:12.046Z,7408.00
2023-02-22T09:09:12.049Z,7312.00
2023-02-22T09:10:12.032Z,7392.00
2023-02-22T09:11:12.038Z,7964.00
2023-02-22T09:12:12.042Z,8224.00
2023-02-22T09:13:12.058Z,8380.00
2023-02-22T09:14:12.062Z,8116.00
2023-02-22T09:15:12.059Z,8120.00
2023-02-22T09:16:12.132Z,8512.00
2023-02-22T09:17:12.085Z,8784.00
2023-02-22T09:18:12.079Z,8780.00
2023-02-22T09:19:12.078Z,8752.00
2023-02-22T09:20:12.103Z,9392.00
2023-02-22T09:21:12.102Z,9944.00
2023-02-22T09:22:12.105Z,11060.00
2023-02-22T09:23:12.129Z,11468.00
2023-02-22T09:24:12.117Z,11340.00
2023-02-22T09:25:17.040Z,11932.00
2023-02-22T09:26:12.122Z,11824.00
2023-02-22T09:27:12.162Z,16864.00
2023-02-22T09:28:12.133Z,12208.00
2023-02-22T09:29:12.137Z,12836.00
2023-02-22T09:30:12.185Z,14128.00
2023-02-22T09:31:12.148Z,14020.00
2023-02-22T09:32:12.450Z,13852.00
2023-02-22T09:33:12.437Z,15184.00
2023-02-22T09:34:12.167Z,13920.00
2023-02-22T09:40:09.059Z,11468.00
2023-02-22T09:41:09.096Z,11600.00
2023-02-22T09:42:09.079Z,11356.00
2023-02-22T09:43:09.085Z,11180.00
2023-02-22T09:44:09.085Z,11164.00
2023-02-22T09:45:09.101Z,10348.00
2023-02-22T09:46:09.125Z,9392.00
2023-02-22T09:47:09.101Z,9464.00
2023-02-22T09:48:21.279Z,9384.00
2023-02-22T09:49:09.112Z,9300.00
2023-02-22T09:50:09.129Z,9156.00
2023-02-22T09:51:09.126Z,9024.00
2023-02-22T09:52:09.136Z,9020.00
2023-02-22T09:53:09.141Z,9120.00
2023-02-22T09:54:09.146Z,9832.00
2023-02-22T09:55:09.174Z,10552.00
2023-02-22T09:56:09.160Z,11304.00
2023-02-22T09:57:09.208Z,12152.00
2023-02-22T09:58:09.180Z,12664.00
2023-02-22T09:59:09.188Z,14164.00
2023-02-22T10:00:09.192Z,14548.00
2023-02-22T10:01:09.207Z,13800.00
2023-02-22T10:02:09.200Z,14560.00
2023-02-22T10:03:09.212Z,14840.00
2023-02-22T10:04:09.223Z,16544.00
2023-02-22T10:05:09.286Z,18048.00
2023-02-22T10:06:09.232Z,16224.00
2023-02-22T10:07:09.230Z,16544.00
2023-02-22T10:08:09.245Z,18496.00
2023-02-22T10:09:09.253Z,24672.00
2023-02-22T10:10:09.251Z,19424.00
2023-02-22T10:11:09.256Z,18112.00
2023-02-22T10:12:09.274Z,17056.00
2023-02-22T10:13:09.370Z,17728.00
2023-02-22T10:14:09.287Z,17568.00
2023-02-22T10:15:09.284Z,25600.00
2023-02-22T10:16:09.351Z,19840.00
2023-02-22T10:17:09.318Z,17696.00
2023-02-22T10:18:12.534Z,18048.00
2023-02-22T10:19:53.672Z,21024.00
2023-02-22T10:27:21.239Z,19392.00
2023-02-22T10:28:21.257Z,19584.00
2023-02-22T10:29:21.245Z,19552.00
2023-02-22T10:30:25.012Z,21408.00
2023-02-22T10:31:21.384Z,20768.00
2023-02-22T10:32:21.310Z,20352.00
2023-02-22T10:33:21.279Z,20160.00
2023-02-22T10:34:21.279Z,22592.00
2023-02-22T10:35:21.298Z,21984.00
2023-02-22T10:36:21.298Z,22624.00
2023-02-22T10:37:21.336Z,25856.00
2023-02-22T10:38:21.321Z,22240.00
2023-02-22T10:39:21.413Z,22432.00
2023-02-22T10:40:21.335Z,22816.00
2023-02-22T10:41:21.346Z,22912.00
2023-02-22T10:42:21.352Z,22368.00
2023-02-22T10:43:21.355Z,22432.00
2023-02-22T10:44:21.386Z,21504.00
2023-02-22T10:45:21.381Z,21568.00
2023-02-22T10:46:21.517Z,21664.00
2023-02-22T10:47:22.079Z,24128.00
2023-02-22T10:48:21.403Z,22144.00
2023-02-22T10:49:21.406Z,23136.00
2023-02-22T10:50:21.421Z,30336.00
2023-02-22T10:51:21.421Z,25280.00
2023-02-22T10:52:21.437Z,30848.00
2023-02-22T10:53:21.440Z,25248.00
2023-02-22T10:54:21.462Z,25280.00
2023-02-22T10:55:21.472Z,24736.00
2023-02-22T10:56:21.550Z,30464.00
2023-02-22T10:57:21.473Z,28544.00
2023-02-22T10:58:21.493Z,27808.00
2023-02-22T11:00:54.167Z,27264.00
2023-02-22T11:01:54.158Z,35872.00
2023-02-22T11:02:54.159Z,42336.00
2023-02-22T11:03:54.161Z,25984.00
2023-02-22T11:04:54.296Z,25824.00
2023-02-22T11:05:54.192Z,25472.00
2023-02-22T11:06:54.188Z,26208.00
2023-02-22T11:07:54.203Z,28320.00
2023-02-22T11:08:54.206Z,31392.00
2023-02-22T11:09:54.216Z,32128.00
2023-02-22T11:10:54.226Z,36448.00
2023-02-22T11:11:54.234Z,32192.00
2023-02-22T11:12:54.252Z,34080.00
2023-02-22T11:13:54.261Z,31616.00
2023-02-22T11:14:54.271Z,36320.00
2023-02-22T11:15:54.281Z,43168.00
2023-02-22T11:16:54.321Z,56128.00
2023-02-22T11:17:54.301Z,54048.00
2023-02-22T11:18:54.311Z,45376.00
2023-02-22T11:19:54.320Z,53792.00
2023-02-22T11:20:54.324Z,58240.00
2023-02-22T11:21:55.150Z,49728.00
2023-02-22T11:22:55.424Z,42304.00
2023-02-22T11:28:48.628Z,37344.00
2023-02-22T11:30:41.334Z,47296.00
2023-02-22T11:31:41.335Z,37632.00
2023-02-22T11:32:41.265Z,36672.00
2023-02-22T11:33:41.242Z,45376.00
2023-02-22T11:36:31.409Z,38720.00
2023-02-22T11:37:31.421Z,36000.00
2023-02-22T11:38:31.437Z,42656.00
2023-02-22T11:39:31.490Z,40256.00
2023-02-22T11:40:33.343Z,43360.00
2023-02-22T11:41:31.469Z,59328.00
2023-02-22T11:42:31.480Z,53376.00
2023-02-22T11:43:31.495Z,38944.00
2023-02-22T11:44:31.516Z,51424.00
2023-02-22T11:45:31.521Z,42848.00
2023-02-22T11:46:31.610Z,42240.00
2023-02-22T11:47:31.543Z,34304.00
2023-02-22T11:48:31.697Z,33472.00
2023-02-22T11:49:31.577Z,31488.00
2023-02-22T11:50:31.596Z,58592.00
2023-02-22T11:51:31.610Z,56512.00
2023-02-22T11:52:31.618Z,44288.00
2023-02-22T11:53:31.627Z,37376.00
2023-02-22T11:54:31.644Z,50016.00
2023-02-22T11:55:42.363Z,33920.00
2023-02-22T11:56:37.827Z,32896.00
2023-02-22T11:57:31.680Z,37248.00
2023-02-22T11:58:31.698Z,40256.00
2023-02-22T11:59:31.713Z,39840.00
2023-02-22T12:00:31.730Z,29504.00
2023-02-22T12:01:31.732Z,31392.00
2023-02-22T12:02:31.755Z,26560.00
2023-02-22T12:03:31.825Z,29536.00
2023-02-22T12:04:31.905Z,29024.00
2023-02-22T12:05:31.786Z,32832.00
2023-02-22T12:06:31.834Z,33216.00
2023-02-22T12:07:31.831Z,35168.00
2023-02-22T12:08:31.833Z,48416.00
2023-02-22T12:09:31.844Z,49344.00
2023-02-22T12:10:31.853Z,53216.00
2023-02-22T12:11:31.872Z,50272.00
2023-02-22T12:13:14.430Z,61184.00
2023-02-22T12:14:14.445Z,48640.00
2023-02-22T12:15:14.448Z,34208.00
2023-02-22T12:16:14.539Z,30624.00
2023-02-22T12:17:14.473Z,30624.00
2023-02-22T12:18:14.494Z,39552.00
2023-02-22T12:19:14.499Z,60000.00
2023-02-22T12:20:14.538Z,58688.00
2023-02-22T12:21:14.534Z,57696.00
2023-02-22T12:22:14.541Z,56768.00
2023-02-22T12:23:14.563Z,57728.00
2023-02-22T12:24:14.602Z,54688.00
2023-02-22T12:25:14.593Z,54528.00
2023-02-22T12:26:14.689Z,54752.00
2023-02-22T12:27:14.648Z,51808.00
2023-02-22T12:28:24.167Z,48352.00
2023-02-22T12:29:14.645Z,47008.00
2023-02-22T12:30:14.688Z,40640.00
2023-02-22T12:31:15.326Z,43712.00
2023-02-22T12:32:14.765Z,50816.00
2023-02-22T12:33:14.718Z,52800.00
2023-02-22T12:34:14.792Z,51648.00
2023-02-22T12:35:14.737Z,49632.00
2023-02-22T12:36:14.772Z,48448.00
2023-02-22T12:37:14.779Z,41088.00
2023-02-22T12:38:14.791Z,37824.00
2023-02-22T12:39:14.787Z,38368.00
2023-02-22T12:40:14.820Z,38496.00
2023-02-22T12:41:15.186Z,37664.00
2023-02-22T12:42:14.835Z,36960.00
2023-02-22T12:43:14.854Z,34816.00
2023-02-22T12:44:14.866Z,33696.00
2023-02-22T12:45:14.886Z,33632.00
2023-02-22T12:46:14.927Z,30848.00
2023-02-22T12:47:14.915Z,29440.00
2023-02-22T12:48:14.927Z,27008.00
2023-02-22T12:49:14.942Z,27456.00
2023-02-22T12:50:16.039Z,26400.00
2023-02-22T12:51:15.153Z,26144.00
2023-02-22T12:52:21.664Z,25760.00
2023-02-22T12:53:15.010Z,29312.00
2023-02-22T12:54:15.007Z,29056.00
2023-02-22T12:55:15.022Z,25760.00
2023-02-22T12:56:15.446Z,25856.00
2023-02-22T12:57:15.059Z,25856.00